sensor_id;sensor_type;location;lat;lon;timestamp;P1;durP1;ratioP1;P2;durP2;ratioP2
76576;SDS011;65441;44.748;37.600;2023-04-24T00:01:13;9.07;;;2.58;;
76576;SDS011;65441;44.748;37.600;2023-04-24T00:03:43;7.43;;;2.53;;
76576;SDS011;65441;44.748;37.600;2023-04-24T00:06:12;7.68;;;2.22;;
76576;SDS011;65441;44.748;37.600;2023-04-24T00:08:43;9.32;;;2.20;;
76576;SDS011;65441;44.748;37.600;2023-04-24T00:11:12;11.50;;;2.42;;
76576;SDS011;65441;44.748;37.600;2023-04-24T00:13:41;6.95;;;1.92;;
76576;SDS011;65441;44.748;37.600;2023-04-24T00:16:09;7.55;;;2.63;;
76576;SDS011;65441;44.748;37.600;2023-04-24T00:18:40;6.50;;;2.30;;
76576;SDS011;65441;44.748;37.600;2023-04-24T00:21:09;11.70;;;2.60;;
76576;SDS011;65441;44.748;37.600;2023-04-24T00:23:38;8.30;;;2.35;;
76576;SDS011;65441;44.748;37.600;2023-04-24T00:26:07;8.02;;;2.22;;
76576;SDS011;65441;44.748;37.600;2023-04-24T00:28:35;7.43;;;2.17;;
76576;SDS011;65441;44.748;37.600;2023-04-24T00:31:04;7.07;;;2.25;;
76576;SDS011;65441;44.748;37.600;2023-04-24T00:33:33;7.97;;;2.00;;
76576;SDS011;65441;44.748;37.600;2023-04-24T00:36:04;6.72;;;1.88;;
76576;SDS011;65441;44.748;37.600;2023-04-24T00:38:34;5.88;;;1.85;;
76576;SDS011;65441;44.748;37.600;2023-04-24T00:41:03;5.00;;;1.80;;
76576;SDS011;65441;44.748;37.600;2023-04-24T00:43:32;6.50;;;1.80;;
76576;SDS011;65441;44.748;37.600;2023-04-24T00:46:01;7.32;;;1.80;;
76576;SDS011;65441;44.748;37.600;2023-04-24T00:48:30;5.30;;;2.03;;
76576;SDS011;65441;44.748;37.600;2023-04-24T00:51:00;6.93;;;2.00;;
76576;SDS011;65441;44.748;37.600;2023-04-24T00:53:31;11.20;;;2.20;;
76576;SDS011;65441;44.748;37.600;2023-04-24T00:56:00;7.22;;;2.08;;
76576;SDS011;65441;44.748;37.600;2023-04-24T00:58:29;4.72;;;1.92;;
76576;SDS011;65441;44.748;37.600;2023-04-24T01:00:58;8.23;;;2.03;;
76576;SDS011;65441;44.748;37.600;2023-04-24T01:03:29;6.55;;;2.15;;
76576;SDS011;65441;44.748;37.600;2023-04-24T01:06:00;5.72;;;2.00;;
76576;SDS011;65441;44.748;37.600;2023-04-24T01:08:31;4.90;;;1.90;;
76576;SDS011;65441;44.748;37.600;2023-04-24T01:11:01;5.38;;;1.80;;
76576;SDS011;65441;44.748;37.600;2023-04-24T01:13:33;5.00;;;1.60;;
76576;SDS011;65441;44.748;37.600;2023-04-24T01:16:03;6.45;;;2.40;;
76576;SDS011;65441;44.748;37.600;2023-04-24T01:18:34;6.13;;;1.77;;
76576;SDS011;65441;44.748;37.600;2023-04-24T01:21:04;5.57;;;1.60;;
76576;SDS011;65441;44.748;37.600;2023-04-24T01:23:37;6.55;;;2.05;;
76576;SDS011;65441;44.748;37.600;2023-04-24T01:26:06;6.40;;;2.17;;
76576;SDS011;65441;44.748;37.600;2023-04-24T01:28:35;5.78;;;1.70;;
76576;SDS011;65441;44.748;37.600;2023-04-24T01:31:08;6.00;;;1.60;;
76576;SDS011;65441;44.748;37.600;2023-04-24T01:33:37;5.93;;;1.80;;
76576;SDS011;65441;44.748;37.600;2023-04-24T01:36:06;6.45;;;1.77;;
76576;SDS011;65441;44.748;37.600;2023-04-24T01:38:37;4.45;;;1.67;;
76576;SDS011;65441;44.748;37.600;2023-04-24T01:41:06;7.18;;;1.80;;
76576;SDS011;65441;44.748;37.600;2023-04-24T01:43:35;9.50;;;2.00;;
76576;SDS011;65441;44.748;37.600;2023-04-24T01:46:05;7.57;;;2.00;;
76576;SDS011;65441;44.748;37.600;2023-04-24T01:48:36;6.85;;;1.60;;
76576;SDS011;65441;44.748;37.600;2023-04-24T01:51:05;5.90;;;1.90;;
76576;SDS011;65441;44.748;37.600;2023-04-24T01:53:34;9.20;;;1.95;;
76576;SDS011;65441;44.748;37.600;2023-04-24T01:56:04;5.03;;;1.58;;
76576;SDS011;65441;44.748;37.600;2023-04-24T01:58:33;4.60;;;1.63;;
76576;SDS011;65441;44.748;37.600;2023-04-24T02:01:03;5.32;;;2.00;;
76576;SDS011;65441;44.748;37.600;2023-04-24T02:03:31;6.97;;;1.50;;
76576;SDS011;65441;44.748;37.600;2023-04-24T02:06:00;5.25;;;1.40;;
76576;SDS011;65441;44.748;37.600;2023-04-24T02:08:31;7.82;;;1.90;;
76576;SDS011;65441;44.748;37.600;2023-04-24T02:11:00;5.07;;;1.50;;
76576;SDS011;65441;44.748;37.600;2023-04-24T02:13:30;5.53;;;1.60;;
76576;SDS011;65441;44.748;37.600;2023-04-24T02:16:01;4.72;;;1.60;;
76576;SDS011;65441;44.748;37.600;2023-04-24T02:18:31;5.57;;;1.75;;
76576;SDS011;65441;44.748;37.600;2023-04-24T02:21:00;5.50;;;1.75;;
76576;SDS011;65441;44.748;37.600;2023-04-24T02:23:28;7.22;;;1.95;;
76576;SDS011;65441;44.748;37.600;2023-04-24T02:25:57;5.88;;;1.83;;
76576;SDS011;65441;44.748;37.600;2023-04-24T02:28:26;4.43;;;1.50;;
76576;SDS011;65441;44.748;37.600;2023-04-24T02:30:56;4.57;;;1.75;;
76576;SDS011;65441;44.748;37.600;2023-04-24T02:33:25;4.75;;;1.63;;
76576;SDS011;65441;44.748;37.600;2023-04-24T02:35:54;6.88;;;1.52;;
76576;SDS011;65441;44.748;37.600;2023-04-24T02:38:22;6.28;;;1.40;;
76576;SDS011;65441;44.748;37.600;2023-04-24T02:40:51;4.70;;;1.45;;
76576;SDS011;65441;44.748;37.600;2023-04-24T02:43:20;6.13;;;1.65;;
76576;SDS011;65441;44.748;37.600;2023-04-24T02:45:49;5.53;;;1.85;;
76576;SDS011;65441;44.748;37.600;2023-04-24T02:48:20;5.47;;;1.80;;
76576;SDS011;65441;44.748;37.600;2023-04-24T02:50:49;3.90;;;1.52;;
76576;SDS011;65441;44.748;37.600;2023-04-24T02:53:18;5.22;;;1.50;;
76576;SDS011;65441;44.748;37.600;2023-04-24T02:55:47;3.90;;;1.48;;
76576;SDS011;65441;44.748;37.600;2023-04-24T02:58:16;7.43;;;1.67;;
76576;SDS011;65441;44.748;37.600;2023-04-24T03:00:46;4.45;;;1.50;;
76576;SDS011;65441;44.748;37.600;2023-04-24T03:03:16;6.30;;;1.70;;
76576;SDS011;65441;44.748;37.600;2023-04-24T03:05:46;3.55;;;1.52;;
76576;SDS011;65441;44.748;37.600;2023-04-24T03:08:15;5.30;;;1.42;;
76576;SDS011;65441;44.748;37.600;2023-04-24T03:10:44;6.95;;;1.40;;
76576;SDS011;65441;44.748;37.600;2023-04-24T03:13:15;6.05;;;1.58;;
76576;SDS011;65441;44.748;37.600;2023-04-24T03:15:44;4.68;;;1.90;;
76576;SDS011;65441;44.748;37.600;2023-04-24T03:18:13;4.57;;;1.42;;
76576;SDS011;65441;44.748;37.600;2023-04-24T03:20:46;4.47;;;1.73;;
76576;SDS011;65441;44.748;37.600;2023-04-24T03:23:15;4.05;;;1.20;;
76576;SDS011;65441;44.748;37.600;2023-04-24T03:25:44;9.57;;;1.70;;
76576;SDS011;65441;44.748;37.600;2023-04-24T03:28:16;6.22;;;1.95;;
76576;SDS011;65441;44.748;37.600;2023-04-24T03:33:20;5.30;;;1.70;;
76576;SDS011;65441;44.748;37.600;2023-04-24T03:35:59;10.02;;;2.00;;
76576;SDS011;65441;44.748;37.600;2023-04-24T03:38:36;9.35;;;2.15;;
76576;SDS011;65441;44.748;37.600;2023-04-24T03:41:22;7.28;;;2.17;;
76576;SDS011;65441;44.748;37.600;2023-04-24T03:43:59;5.68;;;1.77;;
76576;SDS011;65441;44.748;37.600;2023-04-24T03:46:28;5.75;;;2.17;;
76576;SDS011;65441;44.748;37.600;2023-04-24T03:48:59;6.13;;;2.08;;
76576;SDS011;65441;44.748;37.600;2023-04-24T03:51:34;4.68;;;1.73;;
76576;SDS011;65441;44.748;37.600;2023-04-24T03:54:14;5.72;;;2.13;;
76576;SDS011;65441;44.748;37.600;2023-04-24T03:56:46;9.05;;;2.33;;
76576;SDS011;65441;44.748;37.600;2023-04-24T03:59:15;5.88;;;2.05;;
76576;SDS011;65441;44.748;37.600;2023-04-24T04:01:48;8.13;;;2.10;;
76576;SDS011;65441;44.748;37.600;2023-04-24T04:04:17;8.40;;;2.10;;
76576;SDS011;65441;44.748;37.600;2023-04-24T04:06:48;8.38;;;2.00;;
76576;SDS011;65441;44.748;37.600;2023-04-24T04:09:17;6.97;;;2.20;;
76576;SDS011;65441;44.748;37.600;2023-04-24T04:11:46;6.30;;;2.05;;
76576;SDS011;65441;44.748;37.600;2023-04-24T04:14:15;5.65;;;2.00;;
76576;SDS011;65441;44.748;37.600;2023-04-24T04:16:48;8.70;;;1.70;;
76576;SDS011;65441;44.748;37.600;2023-04-24T04:19:17;5.95;;;2.20;;
76576;SDS011;65441;44.748;37.600;2023-04-24T04:21:45;6.25;;;2.10;;
76576;SDS011;65441;44.748;37.600;2023-04-24T04:24:26;5.25;;;1.60;;
76576;SDS011;65441;44.748;37.600;2023-04-24T04:26:58;7.43;;;2.05;;
76576;SDS011;65441;44.748;37.600;2023-04-24T04:29:32;6.65;;;1.98;;
76576;SDS011;65441;44.748;37.600;2023-04-24T04:32:05;5.78;;;1.52;;
76576;SDS011;65441;44.748;37.600;2023-04-24T04:34:34;9.07;;;1.85;;
76576;SDS011;65441;44.748;37.600;2023-04-24T04:37:06;5.05;;;1.80;;
76576;SDS011;65441;44.748;37.600;2023-04-24T04:39:53;5.30;;;1.95;;
76576;SDS011;65441;44.748;37.600;2023-04-24T04:42:25;6.70;;;1.90;;
76576;SDS011;65441;44.748;37.600;2023-04-24T04:44:55;4.20;;;1.60;;
76576;SDS011;65441;44.748;37.600;2023-04-24T04:47:31;5.95;;;1.80;;
76576;SDS011;65441;44.748;37.600;2023-04-24T04:50:01;5.55;;;1.92;;
76576;SDS011;65441;44.748;37.600;2023-04-24T04:52:34;5.82;;;1.65;;
76576;SDS011;65441;44.748;37.600;2023-04-24T04:55:17;6.20;;;1.88;;
76576;SDS011;65441;44.748;37.600;2023-04-24T04:58:24;6.25;;;1.95;;
76576;SDS011;65441;44.748;37.600;2023-04-24T05:00:57;6.97;;;1.80;;
76576;SDS011;65441;44.748;37.600;2023-04-24T05:03:37;7.38;;;1.88;;
76576;SDS011;65441;44.748;37.600;2023-04-24T05:06:10;8.63;;;2.05;;
76576;SDS011;65441;44.748;37.600;2023-04-24T05:08:41;5.57;;;1.75;;
76576;SDS011;65441;44.748;37.600;2023-04-24T05:11:16;5.53;;;1.90;;
76576;SDS011;65441;44.748;37.600;2023-04-24T05:13:46;7.07;;;2.08;;
76576;SDS011;65441;44.748;37.600;2023-04-24T05:16:19;5.55;;;2.03;;
76576;SDS011;65441;44.748;37.600;2023-04-24T05:18:49;8.48;;;2.20;;
76576;SDS011;65441;44.748;37.600;2023-04-24T05:21:23;4.82;;;2.00;;
76576;SDS011;65441;44.748;37.600;2023-04-24T05:23:54;6.57;;;1.90;;
76576;SDS011;65441;44.748;37.600;2023-04-24T05:26:41;5.25;;;2.05;;
76576;SDS011;65441;44.748;37.600;2023-04-24T05:29:11;8.55;;;2.17;;
76576;SDS011;65441;44.748;37.600;2023-04-24T05:31:39;5.68;;;1.90;;
76576;SDS011;65441;44.748;37.600;2023-04-24T05:34:09;5.63;;;2.00;;
76576;SDS011;65441;44.748;37.600;2023-04-24T05:36:41;4.65;;;1.88;;
76576;SDS011;65441;44.748;37.600;2023-04-24T05:39:11;8.93;;;2.22;;
76576;SDS011;65441;44.748;37.600;2023-04-24T05:41:40;5.35;;;1.83;;
76576;SDS011;65441;44.748;37.600;2023-04-24T05:44:09;6.75;;;2.10;;
76576;SDS011;65441;44.748;37.600;2023-04-24T05:46:38;6.53;;;2.00;;
76576;SDS011;65441;44.748;37.600;2023-04-24T05:49:07;9.25;;;2.40;;
76576;SDS011;65441;44.748;37.600;2023-04-24T05:51:36;6.22;;;2.50;;
76576;SDS011;65441;44.748;37.600;2023-04-24T05:54:06;9.73;;;2.38;;
76576;SDS011;65441;44.748;37.600;2023-04-24T05:56:36;6.32;;;2.13;;
76576;SDS011;65441;44.748;37.600;2023-04-24T05:59:06;6.22;;;2.20;;
76576;SDS011;65441;44.748;37.600;2023-04-24T06:01:36;6.57;;;1.83;;
76576;SDS011;65441;44.748;37.600;2023-04-24T06:04:19;6.57;;;2.40;;
76576;SDS011;65441;44.748;37.600;2023-04-24T06:06:48;7.57;;;2.58;;
76576;SDS011;65441;44.748;37.600;2023-04-24T06:09:22;8.80;;;2.63;;
76576;SDS011;65441;44.748;37.600;2023-04-24T06:11:52;12.00;;;2.75;;
76576;SDS011;65441;44.748;37.600;2023-04-24T06:14:25;7.05;;;2.40;;
76576;SDS011;65441;44.748;37.600;2023-04-24T06:17:13;6.35;;;2.50;;
76576;SDS011;65441;44.748;37.600;2023-04-24T06:19:43;7.25;;;2.50;;
76576;SDS011;65441;44.748;37.600;2023-04-24T06:22:12;6.45;;;2.53;;
76576;SDS011;65441;44.748;37.600;2023-04-24T06:24:42;6.63;;;2.50;;
76576;SDS011;65441;44.748;37.600;2023-04-24T06:27:12;6.72;;;2.65;;
76576;SDS011;65441;44.748;37.600;2023-04-24T06:29:41;7.25;;;2.33;;
76576;SDS011;65441;44.748;37.600;2023-04-24T06:32:10;7.13;;;2.60;;
76576;SDS011;65441;44.748;37.600;2023-04-24T06:34:39;8.98;;;2.60;;
76576;SDS011;65441;44.748;37.600;2023-04-24T06:37:09;6.55;;;2.45;;
76576;SDS011;65441;44.748;37.600;2023-04-24T06:39:37;8.43;;;2.92;;
76576;SDS011;65441;44.748;37.600;2023-04-24T06:42:06;6.88;;;2.63;;
76576;SDS011;65441;44.748;37.600;2023-04-24T06:44:37;5.35;;;2.40;;
76576;SDS011;65441;44.748;37.600;2023-04-24T06:47:08;11.18;;;2.88;;
76576;SDS011;65441;44.748;37.600;2023-04-24T06:49:40;7.25;;;3.00;;
76576;SDS011;65441;44.748;37.600;2023-04-24T06:52:09;9.82;;;2.72;;
76576;SDS011;65441;44.748;37.600;2023-04-24T06:54:38;8.93;;;3.28;;
76576;SDS011;65441;44.748;37.600;2023-04-24T06:57:09;9.68;;;3.40;;
76576;SDS011;65441;44.748;37.600;2023-04-24T06:59:40;9.55;;;3.42;;
76576;SDS011;65441;44.748;37.600;2023-04-24T07:02:09;8.70;;;3.20;;
76576;SDS011;65441;44.748;37.600;2023-04-24T07:04:38;9.88;;;3.60;;
76576;SDS011;65441;44.748;37.600;2023-04-24T07:07:07;9.85;;;3.70;;
76576;SDS011;65441;44.748;37.600;2023-04-24T07:09:40;12.00;;;4.13;;
76576;SDS011;65441;44.748;37.600;2023-04-24T07:12:09;11.02;;;4.25;;
76576;SDS011;65441;44.748;37.600;2023-04-24T07:14:39;9.63;;;4.00;;
76576;SDS011;65441;44.748;37.600;2023-04-24T07:17:08;10.15;;;4.03;;
76576;SDS011;65441;44.748;37.600;2023-04-24T07:19:40;8.45;;;3.78;;
76576;SDS011;65441;44.748;37.600;2023-04-24T07:22:09;8.52;;;4.00;;
76576;SDS011;65441;44.748;37.600;2023-04-24T07:24:43;8.73;;;3.92;;
76576;SDS011;65441;44.748;37.600;2023-04-24T07:27:12;9.00;;;4.20;;
76576;SDS011;65441;44.748;37.600;2023-04-24T07:29:43;9.00;;;3.85;;
76576;SDS011;65441;44.748;37.600;2023-04-24T07:32:12;7.82;;;4.10;;
76576;SDS011;65441;44.748;37.600;2023-04-24T07:34:44;10.80;;;4.22;;
76576;SDS011;65441;44.748;37.600;2023-04-24T07:37:13;8.50;;;3.90;;
76576;SDS011;65441;44.748;37.600;2023-04-24T07:39:42;10.90;;;4.68;;
76576;SDS011;65441;44.748;37.600;2023-04-24T07:42:13;9.43;;;4.35;;
76576;SDS011;65441;44.748;37.600;2023-04-24T07:44:43;9.80;;;5.07;;
76576;SDS011;65441;44.748;37.600;2023-04-24T07:47:13;12.18;;;5.07;;
76576;SDS011;65441;44.748;37.600;2023-04-24T07:49:43;14.73;;;6.28;;
76576;SDS011;65441;44.748;37.600;2023-04-24T07:52:11;10.25;;;5.45;;
76576;SDS011;65441;44.748;37.600;2023-04-24T07:54:40;11.13;;;5.75;;
76576;SDS011;65441;44.748;37.600;2023-04-24T07:57:09;10.68;;;5.40;;
76576;SDS011;65441;44.748;37.600;2023-04-24T07:59:38;11.60;;;5.28;;
76576;SDS011;65441;44.748;37.600;2023-04-24T08:02:09;17.70;;;5.43;;
76576;SDS011;65441;44.748;37.600;2023-04-24T08:04:38;14.00;;;5.05;;
76576;SDS011;65441;44.748;37.600;2023-04-24T08:07:07;13.25;;;5.63;;
76576;SDS011;65441;44.748;37.600;2023-04-24T08:09:36;11.25;;;4.82;;
76576;SDS011;65441;44.748;37.600;2023-04-24T08:12:05;11.63;;;4.85;;
76576;SDS011;65441;44.748;37.600;2023-04-24T08:14:34;27.95;;;4.70;;
76576;SDS011;65441;44.748;37.600;2023-04-24T08:17:03;28.88;;;5.55;;
76576;SDS011;65441;44.748;37.600;2023-04-24T08:19:34;12.93;;;4.40;;
76576;SDS011;65441;44.748;37.600;2023-04-24T08:22:03;9.60;;;4.03;;
76576;SDS011;65441;44.748;37.600;2023-04-24T08:24:32;10.25;;;4.38;;
76576;SDS011;65441;44.748;37.600;2023-04-24T08:27:01;8.75;;;3.50;;
76576;SDS011;65441;44.748;37.600;2023-04-24T08:29:30;8.73;;;3.47;;
76576;SDS011;65441;44.748;37.600;2023-04-24T08:31:59;8.75;;;3.88;;
76576;SDS011;65441;44.748;37.600;2023-04-24T08:34:28;10.05;;;3.10;;
76576;SDS011;65441;44.748;37.600;2023-04-24T08:36:58;7.68;;;3.67;;
76576;SDS011;65441;44.748;37.600;2023-04-24T08:39:27;9.65;;;4.07;;
76576;SDS011;65441;44.748;37.600;2023-04-24T08:41:56;9.18;;;3.17;;
76576;SDS011;65441;44.748;37.600;2023-04-24T08:44:32;9.98;;;3.72;;
76576;SDS011;65441;44.748;37.600;2023-04-24T08:47:01;10.80;;;3.88;;
76576;SDS011;65441;44.748;37.600;2023-04-24T08:49:32;9.32;;;3.78;;
76576;SDS011;65441;44.748;37.600;2023-04-24T08:52:03;9.63;;;3.78;;
76576;SDS011;65441;44.748;37.600;2023-04-24T08:54:33;9.27;;;3.50;;
76576;SDS011;65441;44.748;37.600;2023-04-24T08:57:03;9.07;;;3.70;;
76576;SDS011;65441;44.748;37.600;2023-04-24T08:59:32;9.70;;;4.40;;
76576;SDS011;65441;44.748;37.600;2023-04-24T09:02:02;9.13;;;4.13;;
76576;SDS011;65441;44.748;37.600;2023-04-24T09:04:32;9.52;;;3.88;;
76576;SDS011;65441;44.748;37.600;2023-04-24T09:07:04;9.45;;;3.75;;
76576;SDS011;65441;44.748;37.600;2023-04-24T09:09:35;12.57;;;5.03;;
76576;SDS011;65441;44.748;37.600;2023-04-24T09:12:06;13.38;;;5.43;;
76576;SDS011;65441;44.748;37.600;2023-04-24T09:14:36;15.95;;;7.43;;
76576;SDS011;65441;44.748;37.600;2023-04-24T09:17:09;9.25;;;3.80;;
76576;SDS011;65441;44.748;37.600;2023-04-24T09:19:38;8.48;;;3.90;;
76576;SDS011;65441;44.748;37.600;2023-04-24T09:22:09;7.70;;;2.95;;
76576;SDS011;65441;44.748;37.600;2023-04-24T09:24:39;7.78;;;3.60;;
76576;SDS011;65441;44.748;37.600;2023-04-24T09:27:08;8.48;;;3.55;;
76576;SDS011;65441;44.748;37.600;2023-04-24T09:29:46;10.38;;;3.97;;
76576;SDS011;65441;44.748;37.600;2023-04-24T09:32:22;9.80;;;3.88;;
76576;SDS011;65441;44.748;37.600;2023-04-24T09:35:04;14.55;;;6.97;;
76576;SDS011;65441;44.748;37.600;2023-04-24T09:37:37;16.73;;;8.50;;
76576;SDS011;65441;44.748;37.600;2023-04-24T09:40:17;10.32;;;5.40;;
76576;SDS011;65441;44.748;37.600;2023-04-24T09:42:51;18.58;;;9.43;;
76576;SDS011;65441;44.748;37.600;2023-04-24T09:45:21;10.98;;;4.50;;
76576;SDS011;65441;44.748;37.600;2023-04-24T09:47:51;8.43;;;3.60;;
76576;SDS011;65441;44.748;37.600;2023-04-24T09:50:21;8.82;;;3.47;;
76576;SDS011;65441;44.748;37.600;2023-04-24T09:52:57;11.75;;;3.92;;
76576;SDS011;65441;44.748;37.600;2023-04-24T09:55:28;7.88;;;3.92;;
76576;SDS011;65441;44.748;37.600;2023-04-24T09:57:57;10.25;;;3.70;;
76576;SDS011;65441;44.748;37.600;2023-04-24T10:00:27;9.45;;;3.90;;
76576;SDS011;65441;44.748;37.600;2023-04-24T10:02:57;8.63;;;3.58;;
76576;SDS011;65441;44.748;37.600;2023-04-24T10:05:28;10.75;;;3.50;;
76576;SDS011;65441;44.748;37.600;2023-04-24T10:08:01;7.45;;;2.92;;
76576;SDS011;65441;44.748;37.600;2023-04-24T10:10:31;9.93;;;3.78;;
76576;SDS011;65441;44.748;37.600;2023-04-24T10:13:01;9.07;;;3.20;;
76576;SDS011;65441;44.748;37.600;2023-04-24T10:15:32;8.43;;;3.00;;
76576;SDS011;65441;44.748;37.600;2023-04-24T10:18:01;9.52;;;2.58;;
76576;SDS011;65441;44.748;37.600;2023-04-24T10:20:33;8.38;;;3.05;;
76576;SDS011;65441;44.748;37.600;2023-04-24T10:23:04;11.52;;;3.72;;
76576;SDS011;65441;44.748;37.600;2023-04-24T10:25:34;6.82;;;2.72;;
76576;SDS011;65441;44.748;37.600;2023-04-24T10:28:04;6.47;;;2.83;;
76576;SDS011;65441;44.748;37.600;2023-04-24T10:30:34;7.78;;;3.08;;
76576;SDS011;65441;44.748;37.600;2023-04-24T10:33:04;8.85;;;3.15;;
76576;SDS011;65441;44.748;37.600;2023-04-24T10:35:34;7.80;;;3.22;;
76576;SDS011;65441;44.748;37.600;2023-04-24T10:38:09;7.18;;;3.10;;
76576;SDS011;65441;44.748;37.600;2023-04-24T10:43:10;8.95;;;2.40;;
76576;SDS011;65441;44.748;37.600;2023-04-24T10:45:39;5.78;;;2.40;;
76576;SDS011;65441;44.748;37.600;2023-04-24T10:48:08;6.85;;;2.63;;
76576;SDS011;65441;44.748;37.600;2023-04-24T10:50:44;7.03;;;2.65;;
76576;SDS011;65441;44.748;37.600;2023-04-24T10:53:16;8.15;;;2.80;;
76576;SDS011;65441;44.748;37.600;2023-04-24T10:55:47;7.13;;;2.78;;
76576;SDS011;65441;44.748;37.600;2023-04-24T10:58:21;6.95;;;2.83;;
76576;SDS011;65441;44.748;37.600;2023-04-24T11:00:57;8.45;;;2.78;;
76576;SDS011;65441;44.748;37.600;2023-04-24T11:03:27;7.68;;;3.10;;
76576;SDS011;65441;44.748;37.600;2023-04-24T11:05:58;9.98;;;4.00;;
76576;SDS011;65441;44.748;37.600;2023-04-24T11:08:32;10.45;;;3.72;;
76576;SDS011;65441;44.748;37.600;2023-04-24T11:11:09;8.68;;;3.38;;
76576;SDS011;65441;44.748;37.600;2023-04-24T11:16:32;7.05;;;3.15;;
76576;SDS011;65441;44.748;37.600;2023-04-24T11:19:03;9.43;;;3.40;;
76576;SDS011;65441;44.748;37.600;2023-04-24T11:21:40;9.68;;;3.70;;
76576;SDS011;65441;44.748;37.600;2023-04-24T11:24:31;7.18;;;3.35;;
76576;SDS011;65441;44.748;37.600;2023-04-24T11:27:05;8.70;;;3.38;;
76576;SDS011;65441;44.748;37.600;2023-04-24T11:29:42;8.38;;;3.72;;
76576;SDS011;65441;44.748;37.600;2023-04-24T11:32:19;7.07;;;3.72;;
76576;SDS011;65441;44.748;37.600;2023-04-24T11:34:53;11.07;;;3.90;;
76576;SDS011;65441;44.748;37.600;2023-04-24T11:37:25;9.30;;;4.28;;
76576;SDS011;65441;44.748;37.600;2023-04-24T11:39:57;12.82;;;4.20;;
76576;SDS011;65441;44.748;37.600;2023-04-24T11:42:27;9.50;;;4.25;;
76576;SDS011;65441;44.748;37.600;2023-04-24T11:44:56;8.25;;;3.60;;
76576;SDS011;65441;44.748;37.600;2023-04-24T11:47:30;8.63;;;3.33;;
76576;SDS011;65441;44.748;37.600;2023-04-24T11:50:00;8.02;;;3.38;;
76576;SDS011;65441;44.748;37.600;2023-04-24T11:52:30;7.40;;;3.28;;
76576;SDS011;65441;44.748;37.600;2023-04-24T11:55:00;7.72;;;3.53;;
76576;SDS011;65441;44.748;37.600;2023-04-24T11:57:30;8.63;;;3.20;;
76576;SDS011;65441;44.748;37.600;2023-04-24T12:00:01;9.10;;;2.90;;
76576;SDS011;65441;44.748;37.600;2023-04-24T12:02:39;9.18;;;2.78;;
76576;SDS011;65441;44.748;37.600;2023-04-24T12:05:08;6.70;;;2.88;;
76576;SDS011;65441;44.748;37.600;2023-04-24T12:07:40;10.27;;;2.88;;
76576;SDS011;65441;44.748;37.600;2023-04-24T12:10:12;7.65;;;2.90;;
76576;SDS011;65441;44.748;37.600;2023-04-24T12:12:41;42.05;;;17.15;;
76576;SDS011;65441;44.748;37.600;2023-04-24T12:15:13;11.35;;;4.00;;
76576;SDS011;65441;44.748;37.600;2023-04-24T12:17:45;7.53;;;3.22;;
76576;SDS011;65441;44.748;37.600;2023-04-24T12:20:14;6.65;;;2.78;;
76576;SDS011;65441;44.748;37.600;2023-04-24T12:22:44;6.30;;;2.70;;
76576;SDS011;65441;44.748;37.600;2023-04-24T12:25:15;6.35;;;2.60;;
76576;SDS011;65441;44.748;37.600;2023-04-24T12:27:46;5.60;;;2.17;;
76576;SDS011;65441;44.748;37.600;2023-04-24T12:30:26;6.18;;;2.75;;
76576;SDS011;65441;44.748;37.600;2023-04-24T12:32:59;9.40;;;2.80;;
76576;SDS011;65441;44.748;37.600;2023-04-24T12:35:30;5.72;;;2.50;;
76576;SDS011;65441;44.748;37.600;2023-04-24T12:38:07;5.78;;;2.40;;
76576;SDS011;65441;44.748;37.600;2023-04-24T12:40:38;8.13;;;2.90;;
76576;SDS011;65441;44.748;37.600;2023-04-24T12:43:14;6.43;;;3.10;;
76576;SDS011;65441;44.748;37.600;2023-04-24T12:45:44;8.00;;;3.05;;
76576;SDS011;65441;44.748;37.600;2023-04-24T12:48:13;6.13;;;2.95;;
76576;SDS011;65441;44.748;37.600;2023-04-24T12:50:42;10.80;;;3.25;;
76576;SDS011;65441;44.748;37.600;2023-04-24T12:53:11;5.68;;;2.67;;
76576;SDS011;65441;44.748;37.600;2023-04-24T12:55:42;7.07;;;2.72;;
76576;SDS011;65441;44.748;37.600;2023-04-24T12:58:11;6.57;;;2.75;;
76576;SDS011;65441;44.748;37.600;2023-04-24T13:00:40;6.70;;;2.75;;
76576;SDS011;65441;44.748;37.600;2023-04-24T13:03:10;6.47;;;3.10;;
76576;SDS011;65441;44.748;37.600;2023-04-24T13:05:42;8.15;;;2.80;;
76576;SDS011;65441;44.748;37.600;2023-04-24T13:08:11;6.88;;;2.80;;
76576;SDS011;65441;44.748;37.600;2023-04-24T13:10:42;7.35;;;2.80;;
76576;SDS011;65441;44.748;37.600;2023-04-24T13:13:10;7.43;;;2.58;;
76576;SDS011;65441;44.748;37.600;2023-04-24T13:15:39;5.43;;;2.53;;
76576;SDS011;65441;44.748;37.600;2023-04-24T13:18:08;6.35;;;2.42;;
76576;SDS011;65441;44.748;37.600;2023-04-24T13:20:40;6.10;;;2.20;;
76576;SDS011;65441;44.748;37.600;2023-04-24T13:23:08;7.07;;;2.83;;
76576;SDS011;65441;44.748;37.600;2023-04-24T13:25:37;6.13;;;2.75;;
76576;SDS011;65441;44.748;37.600;2023-04-24T13:28:08;8.65;;;3.05;;
76576;SDS011;65441;44.748;37.600;2023-04-24T13:30:36;8.93;;;3.25;;
76576;SDS011;65441;44.748;37.600;2023-04-24T13:33:07;7.07;;;2.92;;
76576;SDS011;65441;44.748;37.600;2023-04-24T13:35:36;8.88;;;3.20;;
76576;SDS011;65441;44.748;37.600;2023-04-24T13:38:05;11.13;;;3.10;;
76576;SDS011;65441;44.748;37.600;2023-04-24T13:40:33;8.88;;;3.35;;
76576;SDS011;65441;44.748;37.600;2023-04-24T13:43:02;9.93;;;3.40;;
76576;SDS011;65441;44.748;37.600;2023-04-24T13:45:32;7.45;;;2.83;;
76576;SDS011;65441;44.748;37.600;2023-04-24T13:48:03;7.75;;;3.10;;
76576;SDS011;65441;44.748;37.600;2023-04-24T13:50:32;9.90;;;3.33;;
76576;SDS011;65441;44.748;37.600;2023-04-24T13:53:03;6.07;;;2.85;;
76576;SDS011;65441;44.748;37.600;2023-04-24T13:55:32;7.30;;;3.38;;
76576;SDS011;65441;44.748;37.600;2023-04-24T13:58:01;14.93;;;3.95;;
76576;SDS011;65441;44.748;37.600;2023-04-24T14:00:30;9.13;;;2.88;;
76576;SDS011;65441;44.748;37.600;2023-04-24T14:03:00;7.03;;;3.08;;
76576;SDS011;65441;44.748;37.600;2023-04-24T14:05:29;9.00;;;3.58;;
76576;SDS011;65441;44.748;37.600;2023-04-24T14:07:58;8.18;;;3.33;;
76576;SDS011;65441;44.748;37.600;2023-04-24T14:10:27;9.93;;;3.25;;
76576;SDS011;65441;44.748;37.600;2023-04-24T14:12:56;12.00;;;3.30;;
76576;SDS011;65441;44.748;37.600;2023-04-24T14:15:25;6.70;;;3.00;;
76576;SDS011;65441;44.748;37.600;2023-04-24T14:17:54;6.40;;;3.20;;
76576;SDS011;65441;44.748;37.600;2023-04-24T14:20:24;6.60;;;2.92;;
76576;SDS011;65441;44.748;37.600;2023-04-24T14:22:53;6.85;;;2.47;;
76576;SDS011;65441;44.748;37.600;2023-04-24T14:25:22;8.35;;;2.60;;
76576;SDS011;65441;44.748;37.600;2023-04-24T14:27:50;7.45;;;2.53;;
76576;SDS011;65441;44.748;37.600;2023-04-24T14:30:19;8.48;;;2.35;;
76576;SDS011;65441;44.748;37.600;2023-04-24T14:32:48;6.43;;;2.55;;
76576;SDS011;65441;44.748;37.600;2023-04-24T14:35:17;7.45;;;2.42;;
76576;SDS011;65441;44.748;37.600;2023-04-24T14:37:47;7.90;;;2.60;;
76576;SDS011;65441;44.748;37.600;2023-04-24T14:40:16;7.47;;;3.13;;
76576;SDS011;65441;44.748;37.600;2023-04-24T14:42:45;5.50;;;2.30;;
76576;SDS011;65441;44.748;37.600;2023-04-24T14:45:14;9.18;;;2.65;;
76576;SDS011;65441;44.748;37.600;2023-04-24T14:47:43;7.90;;;3.45;;
76576;SDS011;65441;44.748;37.600;2023-04-24T14:50:12;6.68;;;2.88;;
76576;SDS011;65441;44.748;37.600;2023-04-24T14:52:43;8.82;;;3.08;;
76576;SDS011;65441;44.748;37.600;2023-04-24T14:55:13;6.28;;;2.83;;
76576;SDS011;65441;44.748;37.600;2023-04-24T14:57:43;7.80;;;2.38;;
76576;SDS011;65441;44.748;37.600;2023-04-24T15:00:12;8.35;;;3.13;;
76576;SDS011;65441;44.748;37.600;2023-04-24T15:02:43;6.72;;;3.05;;